Tijuana, México

1:25 PM PDT en Agosto 27, 2016 (GMT -0700)
Tijuana BC-CMOE-Proteccion Civil | | Change Station

Alt 476 ft 32.53 °N, 116.99 °W | Updated 1 minute ago

Partly Cloudy
Parcialmente nublado
70.5 ° F
Sensación térmica 74 ° F
N
0.0
Viento Variable Viento desde OSO

Hoy
Alta -- | Baja -- ° F
--% Posibilidad de precipitaciones
Ayer
Alta -- | Baja -- ° F
Precip. -- pul
Presión 29.97 pul
Visibilidad 10.0 Millas
Nubes Baja 2300 ft
Índice de calor 74 ° F
Punto de rocío 61 ° F
Humedad 72%
Precipitaciones 0.00 pul
Espesor de la nieve No disponible.
6:19 AM 7:17 PM
Creciente menguante, 22% visible
METAR KSDM 271953Z 26008KT 10SM FEW023 23/14 A2998 RMK AO2 SLP147 T02330144
Presión 29.97 pul
Visibilidad 10.0 Millas
Nubes Baja 2300 ft
Índice de calor 74 ° F
Punto de rocío 61 ° F
Humedad 72%
Precipitaciones 0.00 pul
Espesor de la nieve No disponible.
6:19 AM 7:17 PM
Creciente menguante, 22% visible
METAR KSDM 271953Z 26008KT 10SM FEW023 23/14 A2998 RMK AO2 SLP147 T02330144

10-Day Weather Forecast

Almanac

Astronomía

Aug. 27, 2016 Salida Puesta
Hora real
Crepúsculo civil
Crepúsculo náutico
Crepúsculo astronómico
Luna
Horas de luz
Horas de luz
Tomorrow will be .
, % of the Moon is Illuminated

Extremos de hoy

Máximos del país Bajas del país

Community

WunderPhotos

Upload Photos

1,935,434 ¡fotos cargadas!

WunderBlog® & News

Nearby

Calidad del aire

  Calidad del aire Índice AQ Contaminante
Not available.

Grosos de nieve

Estación Profundido Altura

Actividad de terremotos

Ciudad Distance Mag. Tiempo y dato
Magnitud mínima muestra es 2,5.

Temperaturas de aguas costeras

Lugar Temperatura

Stations

Estaciones meteorológicas cercanas

Ubicación de la estación Temp. Vientos helados Punto de rocío Humedad Viento Precip. Alt Actualizado Tipo